Time;durP1;ratioP1;P1;durP2;ratioP2;P2;SDS_P1;SDS_P2;PMS_P1;PMS_P2;Temp;Humidity;BMP_temperature;BMP_pressure;BME280_temperature;BME280_humidity;BME280_pressure;Samples;Min_cycle;Max_cycle;Signal;HPM_P1;HPM_P2
2023/07/28 00:01:25;;;;;;;9.80;3.83;;;;;;;22.92;75.10;100561.59;5010984;28;20520;-48
2023/07/28 00:03:50;;;;;;;12.20;4.70;;;;;;;22.57;76.31;100563.88;5011968;28;20045;-44
2023/07/28 00:06:15;;;;;;;10.02;4.10;;;;;;;22.72;76.03;100557.09;5011406;28;20059;-44
2023/07/28 00:08:41;;;;;;;11.18;4.05;;;;;;;22.69;76.04;100551.03;5011722;28;20464;-50
2023/07/28 00:11:12;;;;;;;13.52;4.88;;;;;;;22.56;76.91;100550.66;5011491;28;20053;-44
2023/07/28 00:13:38;;;;;;;9.20;4.10;;;;;;;22.85;75.35;100547.69;5011761;28;20037;-44
2023/07/28 00:16:03;;;;;;;9.93;4.20;;;;;;;23.02;74.53;100544.31;5011590;28;20034;-45
2023/07/28 00:18:29;;;;;;;14.02;4.82;;;;;;;22.82;75.21;100545.16;5011006;28;20049;-45
2023/07/28 00:20:54;;;;;;;10.52;3.92;;;;;;;22.84;75.20;100543.31;5011266;28;20042;-45
2023/07/28 00:23:19;;;;;;;11.95;4.22;;;;;;;22.90;75.00;100547.50;5011375;28;20044;-46
2023/07/28 00:25:45;;;;;;;10.48;4.05;;;;;;;22.83;75.45;100546.88;5011364;28;20030;-43
2023/07/28 00:28:10;;;;;;;11.27;4.15;;;;;;;22.74;75.76;100549.94;5011598;28;20392;-44
2023/07/28 00:30:35;;;;;;;8.35;4.03;;;;;;;22.71;75.88;100549.16;5009223;28;20054;-43
2023/07/28 00:33:01;;;;;;;9.77;4.03;;;;;;;22.82;75.42;100561.09;5011654;28;20096;-43
2023/07/28 00:35:26;;;;;;;10.43;3.90;;;;;;;22.93;75.08;100558.00;5011134;28;20068;-46
2023/07/28 00:37:52;;;;;;;8.68;3.90;;;;;;;22.92;74.96;100551.81;5011337;28;20112;-46
2023/07/28 00:40:18;;;;;;;10.55;3.72;;;;;;;22.78;75.80;100555.97;5010710;28;20472;-44
2023/07/28 00:42:43;;;;;;;10.32;3.65;;;;;;;22.89;75.40;100554.59;5011056;28;20030;-43
2023/07/28 00:45:09;;;;;;;8.20;3.40;;;;;;;22.99;74.60;100550.59;5011272;28;20164;-49
2023/07/28 00:47:35;;;;;;;8.13;3.53;;;;;;;23.00;74.95;100556.78;5010714;28;20036;-45
2023/07/28 00:50:01;;;;;;;9.00;3.30;;;;;;;23.11;74.45;100554.56;5010811;28;20034;-45
2023/07/28 00:52:27;;;;;;;7.07;3.38;;;;;;;23.00;74.54;100548.81;5010129;28;20066;-45
2023/07/28 00:54:52;;;;;;;8.48;3.20;;;;;;;23.01;74.73;100555.88;5011238;28;20743;-43
2023/07/28 00:57:18;;;;;;;7.22;3.10;;;;;;;23.08;74.34;100545.84;5010737;28;20042;-43
2023/07/28 00:59:45;;;;;;;6.93;3.35;;;;;;;23.09;74.64;100543.13;5011072;28;20040;-43
2023/07/28 01:02:11;;;;;;;9.10;3.70;;;;;;;23.01;74.71;100538.13;5010299;28;20053;-42
2023/07/28 01:04:36;;;;;;;7.57;3.20;;;;;;;23.00;74.96;100549.69;5010296;28;20030;-43
2023/07/28 01:07:26;;;;;;;8.90;3.70;;;;;;;22.92;75.20;100549.16;5010971;28;20044;-45
2023/07/28 01:10:17;;;;;;;8.70;3.45;;;;;;;22.90;75.21;100548.34;5010756;28;20070;-46
2023/07/28 01:12:42;;;;;;;9.25;3.30;;;;;;;22.92;75.35;100551.81;5009666;28;20034;-45
2023/07/28 01:15:08;;;;;;;8.55;3.35;;;;;;;22.79;75.44;100557.72;5010518;28;20036;-43
2023/07/28 01:17:33;;;;;;;7.57;3.13;;;;;;;22.86;75.41;100551.22;5010192;28;20045;-45
2023/07/28 01:19:59;;;;;;;9.07;3.40;;;;;;;23.01;74.86;100555.88;5010632;28;20096;-46
2023/07/28 01:22:46;;;;;;;8.38;3.30;;;;;;;23.00;75.19;100554.13;5009668;28;20038;-49
2023/07/28 01:25:27;;;;;;;8.80;3.08;;;;;;;23.07;74.50;100547.63;5010507;28;20403;-45
2023/07/28 01:27:54;;;;;;;9.13;3.50;;;;;;;23.05;74.53;100557.47;5010690;28;20026;-44
2023/07/28 01:30:21;;;;;;;9.52;3.42;;;;;;;22.84;75.49;100550.41;5009942;28;20091;-47
2023/07/28 01:32:47;;;;;;;9.27;3.38;;;;;;;22.77;75.93;100540.97;5010074;28;20037;-45
2023/07/28 01:35:13;;;;;;;10.35;3.75;;;;;;;22.76;76.36;100547.19;5009817;28;20519;-48
2023/07/28 01:37:38;;;;;;;10.27;3.45;;;;;;;22.86;75.50;100545.91;5010190;28;20045;-44
2023/07/28 01:40:04;;;;;;;10.50;3.60;;;;;;;22.92;75.50;100557.16;5010015;28;20041;-47
2023/07/28 01:42:29;;;;;;;8.25;3.30;;;;;;;23.04;75.24;100551.31;5009219;28;20096;-48
2023/07/28 01:44:55;;;;;;;11.43;3.75;;;;;;;23.02;75.14;100547.84;5010087;28;20116;-43
2023/07/28 01:47:20;;;;;;;13.60;3.85;;;;;;;22.85;75.75;100558.31;5009911;28;20038;-44
2023/07/28 01:49:45;;;;;;;10.90;3.60;;;;;;;22.94;75.74;100555.25;5010143;28;20184;-47
2023/07/28 01:52:11;;;;;;;9.20;3.60;;;;;;;23.05;75.35;100546.84;5009946;28;20190;-45
2023/07/28 01:54:36;;;;;;;11.20;3.72;;;;;;;22.96;75.68;100557.88;5010681;28;20070;-45
2023/07/28 01:57:01;;;;;;;8.05;3.05;;;;;;;23.04;75.26;100555.75;5011998;28;20033;-44
2023/07/28 01:59:27;;;;;;;7.70;3.45;;;;;;;23.01;75.62;100553.22;5010175;28;20056;-42
2023/07/28 02:01:52;;;;;;;10.07;3.50;;;;;;;23.07;75.31;100547.63;5010443;28;20040;-45
2023/07/28 02:04:17;;;;;;;10.10;3.50;;;;;;;23.03;75.30;100557.53;5009697;28;20030;-44
2023/07/28 02:06:43;;;;;;;12.07;3.65;;;;;;;23.06;74.88;100552.06;5010152;28;20037;-44
2023/07/28 02:09:08;;;;;;;12.35;4.03;;;;;;;22.97;75.21;100552.50;5010139;28;20065;-47
2023/07/28 02:11:33;;;;;;;9.38;3.60;;;;;;;22.88;75.51;100549.34;5009498;28;20046;-43
2023/07/28 02:13:59;;;;;;;10.57;4.00;;;;;;;22.92;75.94;100550.97;5010197;28;20045;-45
2023/07/28 02:16:27;;;;;;;11.10;3.55;;;;;;;23.05;75.30;100552.16;5009395;28;20080;-43
2023/07/28 02:18:52;;;;;;;12.77;3.70;;;;;;;23.03;75.53;100544.25;5009920;28;20404;-43
2023/07/28 02:21:18;;;;;;;13.98;4.30;;;;;;;22.97;75.81;100556.94;5008830;28;20026;-42
2023/07/28 02:23:43;;;;;;;9.18;3.55;;;;;;;22.99;75.43;100552.44;5009944;28;20399;-43
2023/07/28 02:26:08;;;;;;;14.25;4.30;;;;;;;22.96;76.45;100557.88;5009841;28;20680;-42
2023/07/28 02:28:34;;;;;;;11.15;3.97;;;;;;;22.87;76.64;100556.44;5009364;28;20608;-43
2023/07/28 02:30:59;;;;;;;8.95;4.15;;;;;;;22.85;77.03;100553.00;5009255;28;20033;-43
2023/07/28 02:33:24;;;;;;;12.63;4.45;;;;;;;22.73;77.15;100545.56;5009070;28;20125;-46
2023/07/28 02:35:50;;;;;;;10.85;4.30;;;;;;;23.01;76.00;100556.72;5009548;28;20527;-46
2023/07/28 02:38:15;;;;;;;14.02;4.25;;;;;;;23.02;76.21;100554.94;5009390;28;20496;-48
2023/07/28 02:40:42;;;;;;;18.08;5.30;;;;;;;22.75;77.64;100554.31;5009308;28;20041;-44
2023/07/28 02:43:07;;;;;;;12.60;5.28;;;;;;;22.74;78.12;100549.94;5009408;28;20674;-45
2023/07/28 02:45:33;;;;;;;11.70;4.72;;;;;;;22.84;77.59;100558.38;5008839;28;20112;-43
2023/07/28 02:47:58;;;;;;;11.85;4.30;;;;;;;22.96;77.09;100557.88;5009569;28;20038;-46
2023/07/28 02:50:23;;;;;;;14.23;4.70;;;;;;;23.00;76.60;100560.31;5008941;28;20033;-43
2023/07/28 02:52:49;;;;;;;11.88;4.80;;;;;;;22.96;77.15;100560.53;5008970;28;20084;-43
2023/07/28 02:55:14;;;;;;;10.75;4.72;;;;;;;22.73;78.23;100558.84;5008950;28;20038;-44
2023/07/28 02:57:39;;;;;;;11.82;4.43;;;;;;;22.87;77.43;100559.09;5009495;28;20041;-44
2023/07/28 03:00:07;;;;;;;12.30;4.60;;;;;;;22.82;77.41;100555.78;5009284;28;20080;-47
2023/07/28 03:02:32;;;;;;;13.30;4.60;;;;;;;22.94;77.10;100562.38;5008613;28;20123;-45
2023/07/28 03:04:58;;;;;;;10.85;4.70;;;;;;;22.81;77.67;100569.16;5009222;28;20113;-43
2023/07/28 03:07:23;;;;;;;11.57;4.47;;;;;;;22.92;77.03;100562.47;5009138;28;20038;-46
2023/07/28 03:09:48;;;;;;;18.08;4.70;;;;;;;22.85;77.44;100563.63;5009748;28;20507;-44
2023/07/28 03:12:14;;;;;;;13.73;4.60;;;;;;;22.90;77.77;100569.63;5010978;28;20034;-45
2023/07/28 03:14:39;;;;;;;15.18;4.80;;;;;;;22.87;77.67;100575.06;5013336;28;20381;-43
2023/07/28 03:17:04;;;;;;;13.55;4.45;;;;;;;22.71;78.29;100578.38;5014192;28;20490;-44
2023/07/28 03:19:30;;;;;;;12.23;4.53;;;;;;;22.74;78.70;100578.31;5013167;28;20057;-45
2023/07/28 03:21:55;;;;;;;11.43;4.20;;;;;;;22.87;77.60;100580.38;5013513;28;20030;-46
2023/07/28 03:24:20;;;;;;;14.23;4.90;;;;;;;22.94;77.52;100578.31;5013345;28;20121;-45
2023/07/28 03:26:46;;;;;;;12.55;4.50;;;;;;;22.92;77.62;100577.53;5014034;28;20133;-43
2023/07/28 03:29:11;;;;;;;14.05;4.90;;;;;;;22.82;78.14;100574.38;5013485;28;20036;-44
2023/07/28 03:31:36;;;;;;;13.57;4.70;;;;;;;22.83;78.10;100581.44;5012475;28;20033;-47
2023/07/28 03:34:02;;;;;;;15.45;4.85;;;;;;;22.88;77.73;100583.91;5013047;28;20048;-43
2023/07/28 03:36:28;;;;;;;12.13;4.90;;;;;;;22.86;77.95;100586.63;5012263;28;20038;-44
2023/07/28 03:38:53;;;;;;;15.10;4.90;;;;;;;22.91;77.68;100587.31;5012610;28;20041;-44
2023/07/28 03:41:19;;;;;;;13.35;5.00;;;;;;;22.72;78.71;100589.00;5011653;28;20091;-51
2023/07/28 03:43:45;;;;;;;12.20;4.80;;;;;;;22.83;78.04;100592.06;5012473;28;20045;-43
2023/07/28 03:46:11;;;;;;;19.08;5.30;;;;;;;22.76;78.09;100593.25;5012341;28;20034;-45
2023/07/28 03:48:36;;;;;;;14.30;4.53;;;;;;;22.86;77.95;100593.75;5011617;28;20038;-42
2023/07/28 03:51:01;;;;;;;18.83;5.25;;;;;;;22.86;77.85;100596.41;5011886;28;20500;-44
2023/07/28 03:53:27;;;;;;;12.52;4.75;;;;;;;22.89;78.03;100602.44;5011920;28;20095;-45
2023/07/28 03:55:53;;;;;;;20.27;5.35;;;;;;;22.68;78.64;100600.66;5012174;28;20128;-44
2023/07/28 03:58:18;;;;;;;14.75;5.38;;;;;;;22.89;77.68;100598.91;5011849;28;20603;-44
2023/07/28 04:00:44;;;;;;;15.18;4.82;;;;;;;22.71;78.95;100599.66;5011530;28;20033;-46
2023/07/28 04:03:09;;;;;;;13.15;4.85;;;;;;;23.04;77.19;100603.63;5012195;28;20030;-46
2023/07/28 04:05:37;;;;;;;10.95;3.95;;;;;;;22.97;77.66;100599.47;5011859;28;20026;-45
2023/07/28 04:08:02;;;;;;;12.30;4.60;;;;;;;23.00;77.71;100604.66;5027225;28;20081;-45
2023/07/28 04:10:27;;;;;;;16.13;5.03;;;;;;;22.77;78.49;100610.94;5011606;28;20124;-42
2023/07/28 04:12:52;;;;;;;13.57;5.00;;;;;;;22.80;78.01;100599.31;5011756;28;20033;-45
2023/07/28 04:15:18;;;;;;;16.20;5.25;;;;;;;22.91;78.07;100595.28;5009853;28;20061;-43
2023/07/28 04:17:43;;;;;;;12.88;4.78;;;;;;;22.92;77.81;100594.38;5012060;28;20068;-44
2023/07/28 04:20:09;;;;;;;15.80;5.13;;;;;;;22.91;77.74;100599.72;5011653;28;20073;-45
2023/07/28 04:22:34;;;;;;;12.40;4.50;;;;;;;22.94;77.93;100596.94;5010134;28;20037;-46
2023/07/28 04:25:00;;;;;;;11.82;4.47;;;;;;;22.86;78.20;100596.41;5010852;28;20678;-46
2023/07/28 04:27:25;;;;;;;11.95;4.60;;;;;;;22.90;78.08;100600.66;5011462;28;20040;-45
2023/07/28 04:29:50;;;;;;;15.68;5.00;;;;;;;22.91;77.89;100607.72;5011493;28;20022;-43
2023/07/28 04:32:15;;;;;;;11.63;4.70;;;;;;;22.92;78.21;100601.47;5010488;28;20062;-44
2023/07/28 04:34:41;;;;;;;15.82;5.20;;;;;;;22.76;78.73;100609.19;5011409;28;20061;-44
2023/07/28 04:37:06;;;;;;;13.50;5.35;;;;;;;22.75;78.95;100602.16;5011752;28;20710;-44
2023/07/28 04:39:32;;;;;;;18.85;5.32;;;;;;;22.65;79.32;100598.97;5011036;28;20519;-46
2023/07/28 04:41:57;;;;;;;15.77;5.20;;;;;;;22.82;78.81;100606.28;5010628;28;20026;-44
2023/07/28 04:44:22;;;;;;;12.30;4.68;;;;;;;23.00;78.21;100612.63;5010810;28;20412;-45
2023/07/28 04:46:48;;;;;;;13.70;4.75;;;;;;;22.97;78.30;100608.31;5011376;28;20065;-47
2023/07/28 04:49:13;;;;;;;11.30;4.40;;;;;;;23.08;77.96;100610.53;5010616;28;20034;-46
2023/07/28 04:51:39;;;;;;;12.73;4.70;;;;;;;23.03;78.12;100602.75;5010553;28;20116;-44
2023/07/28 04:54:04;;;;;;;14.07;4.53;;;;;;;22.99;78.14;100609.09;5010804;28;20037;-48
2023/07/28 04:56:29;;;;;;;14.23;4.47;;;;;;;23.11;77.41;100607.75;5010435;28;20038;-45
2023/07/28 04:58:54;;;;;;;14.15;4.45;;;;;;;23.16;77.18;100608.41;5010728;28;20034;-43
2023/07/28 05:01:20;;;;;;;10.10;4.13;;;;;;;23.20;77.53;100620.63;5009755;28;20037;-45
2023/07/28 05:03:45;;;;;;;12.45;4.40;;;;;;;23.11;77.33;100607.75;5010871;28;20168;-44
2023/07/28 05:06:10;;;;;;;12.40;5.00;;;;;;;23.03;77.56;100616.03;5010748;28;20040;-51
2023/07/28 05:08:36;;;;;;;13.40;4.50;;;;;;;22.80;78.81;100610.81;5010325;28;20053;-45
2023/07/28 05:11:01;;;;;;;13.38;5.10;;;;;;;22.93;78.22;100611.19;5010143;28;20128;-45
2023/07/28 05:13:27;;;;;;;12.07;4.93;;;;;;;22.98;78.27;100610.06;5025265;28;20050;-44
2023/07/28 05:15:52;;;;;;;13.85;4.90;;;;;;;23.00;77.83;100608.19;5011044;28;20116;-44
2023/07/28 05:18:17;;;;;;;14.93;4.97;;;;;;;22.90;77.96;100617.47;5016448;28;20099;-46
2023/07/28 05:20:43;;;;;;;11.30;4.93;;;;;;;22.96;78.54;100616.34;5010295;28;20409;-44
2023/07/28 05:23:08;;;;;;;14.52;5.18;;;;;;;23.05;78.32;100615.97;5010589;28;20052;-48
2023/07/28 05:25:33;;;;;;;13.82;5.40;;;;;;;23.06;78.52;100621.22;5009934;28;20061;-47
2023/07/28 05:27:58;;;;;;;13.82;6.45;;;;;;;23.08;77.93;100623.81;5010642;28;20120;-43
2023/07/28 05:30:24;;;;;;;11.20;5.13;;;;;;;23.26;77.54;100625.69;5009740;28;20038;-47
2023/07/28 05:32:49;;;;;;;11.23;4.90;;;;;;;23.01;78.28;100619.69;5009929;28;20619;-45
2023/07/28 05:35:15;;;;;;;13.05;4.80;;;;;;;23.18;77.58;100632.25;5009619;28;20042;-46
2023/07/28 05:37:41;;;;;;;12.23;4.97;;;;;;;22.99;78.00;100625.06;5010270;28;20089;-48
2023/07/28 05:40:07;;;;;;;11.90;4.50;;;;;;;23.14;78.00;100634.19;5010227;28;20168;-47
2023/07/28 05:42:32;;;;;;;11.32;4.40;;;;;;;23.23;77.47;100631.16;5009539;28;20150;-43
2023/07/28 05:44:59;;;;;;;10.85;4.97;;;;;;;22.97;77.92;100636.69;5010638;28;20394;-45
2023/07/28 05:47:24;;;;;;;10.30;4.70;;;;;;;23.23;77.27;100640.94;5010138;28;20500;-44
2023/07/28 05:49:50;;;;;;;10.93;4.45;;;;;;;23.25;76.84;100647.03;5010242;28;20041;-43
2023/07/28 05:52:15;;;;;;;10.60;4.43;;;;;;;23.24;77.24;100646.16;5009070;28;20038;-45
2023/07/28 05:54:41;;;;;;;13.77;5.00;;;;;;;22.83;78.17;100642.56;5010079;28;20584;-43
2023/07/28 05:57:06;;;;;;;13.07;5.20;;;;;;;23.01;78.15;100643.59;5010011;28;20829;-45
2023/07/28 05:59:31;;;;;;;11.45;5.18;;;;;;;22.98;78.39;100649.06;5009525;28;20475;-47
2023/07/28 06:01:57;;;;;;;10.10;4.93;;;;;;;22.90;78.59;100654.69;5009615;28;20038;-42
2023/07/28 06:04:22;;;;;;;13.93;5.35;;;;;;;22.84;78.95;100659.38;5009542;28;20121;-44
2023/07/28 06:06:47;;;;;;;12.43;5.00;;;;;;;22.98;78.35;100654.38;5009912;28;20053;-47
2023/07/28 06:09:13;;;;;;;11.13;4.68;;;;;;;23.33;77.28;100658.22;5009406;28;20033;-43
2023/07/28 06:11:38;;;;;;;8.68;4.65;;;;;;;23.37;76.46;100665.13;5009021;28;20065;-44
2023/07/28 06:14:03;;;;;;;12.88;5.03;;;;;;;23.01;77.22;100659.56;5009563;28;20040;-44
2023/07/28 06:16:29;;;;;;;10.98;4.45;;;;;;;23.16;77.48;100666.91;5009414;28;20034;-45
2023/07/28 06:18:54;;;;;;;11.07;4.70;;;;;;;23.41;76.24;100664.09;5009714;28;20037;-46
2023/07/28 06:21:19;;;;;;;10.20;4.35;;;;;;;23.43;76.23;100671.06;5008895;28;20037;-49
2023/07/28 06:23:45;;;;;;;8.90;4.15;;;;;;;23.49;76.47;100667.31;5024472;28;20034;-46
2023/07/28 06:26:10;;;;;;;13.52;4.93;;;;;;;23.22;76.78;100668.44;5009744;28;20034;-51
2023/07/28 06:28:37;;;;;;;10.80;4.85;;;;;;;23.33;76.60;100668.84;5009405;28;20033;-44
2023/07/28 06:31:02;;;;;;;7.95;4.15;;;;;;;23.61;76.13;100677.41;5009436;28;20619;-44
2023/07/28 06:33:28;;;;;;;9.48;3.92;;;;;;;23.59;75.71;100679.28;5009370;28;20125;-43
2023/07/28 06:35:54;;;;;;;8.40;4.10;;;;;;;23.75;75.37;100680.34;5008714;28;20405;-48
2023/07/28 06:38:19;;;;;;;10.48;3.90;;;;;;;23.88;75.00;100682.47;5008994;28;20045;-46
2023/07/28 06:40:45;;;;;;;7.57;4.00;;;;;;;24.00;74.76;100690.78;5009226;28;20034;-44
2023/07/28 06:43:10;;;;;;;7.57;3.92;;;;;;;24.02;73.79;100682.72;5009469;28;20060;-44
2023/07/28 06:45:36;;;;;;;7.60;3.75;;;;;;;24.15;73.37;100690.06;5008900;28;20472;-44
2023/07/28 06:48:01;;;;;;;6.78;3.65;;;;;;;24.15;72.46;100687.41;5012924;28;20030;-43
2023/07/28 06:50:26;;;;;;;7.88;3.67;;;;;;;23.93;71.97;100691.09;5012948;28;20077;-48
2023/07/28 06:52:52;;;;;;;6.65;3.35;;;;;;;24.06;72.45;100694.97;5010828;28;20672;-49
2023/07/28 06:55:18;;;;;;;7.55;3.45;;;;;;;24.04;71.94;100689.69;5012733;28;20057;-48
2023/07/28 06:57:43;;;;;;;6.82;3.67;;;;;;;23.92;72.94;100698.22;5013210;28;20045;-42
2023/07/28 07:00:09;;;;;;;8.55;3.88;;;;;;;23.89;72.16;100689.53;5013003;28;20037;-47
2023/07/28 07:02:35;;;;;;;6.97;3.80;;;;;;;24.00;72.34;100698.75;5012154;28;20041;-44
2023/07/28 07:05:01;;;;;;;8.45;3.90;;;;;;;23.79;73.33;100705.03;5012941;28;20052;-46
2023/07/28 07:07:26;;;;;;;6.35;3.63;;;;;;;23.76;73.27;100714.03;5012589;28;20496;-47
2023/07/28 07:09:52;;;;;;;10.05;3.97;;;;;;;23.69;73.74;100706.38;5013094;28;20030;-45
2023/07/28 07:12:17;;;;;;;7.32;4.20;;;;;;;23.73;73.60;100702.63;5010739;28;20034;-46
2023/07/28 07:14:42;;;;;;;7.65;4.00;;;;;;;23.99;73.48;100712.13;5013096;28;20112;-44
2023/07/28 07:17:08;;;;;;;8.40;4.28;;;;;;;24.24;72.51;100712.81;5012842;28;20026;-43
2023/07/28 07:19:33;;;;;;;9.35;4.20;;;;;;;24.25;72.46;100712.75;5012301;28;20042;-47
2023/07/28 07:21:59;;;;;;;6.30;3.67;;;;;;;24.25;73.30;100715.41;5012127;28;20038;-43
2023/07/28 07:24:24;;;;;;;7.25;3.88;;;;;;;24.79;71.86;100721.75;5012236;28;20042;-46
2023/07/28 07:26:50;;;;;;;8.57;4.15;;;;;;;25.36;69.92;100719.91;5012659;28;20061;-48
2023/07/28 07:29:16;;;;;;;5.88;3.50;;;;;;;25.84;68.15;100724.56;5012147;28;20492;-47
2023/07/28 07:31:41;;;;;;;6.43;3.80;;;;;;;26.24;65.59;100718.84;5012129;28;20108;-48
2023/07/28 07:34:07;;;;;;;7.22;4.05;;;;;;;26.31;62.99;100716.72;5012316;28;20073;-43
2023/07/28 07:36:32;;;;;;;6.85;4.00;;;;;;;26.84;62.33;100716.41;5012066;28;20112;-46
2023/07/28 07:38:58;;;;;;;7.78;4.18;;;;;;;27.13;61.87;100716.63;5011917;28;20085;-49
2023/07/28 07:41:24;;;;;;;6.30;3.75;;;;;;;27.12;61.08;100718.44;5011445;28;20121;-47
2023/07/28 07:43:52;;;;;;;8.25;3.30;;;;;;;27.74;59.82;100713.91;5012201;28;20045;-48
2023/07/28 07:46:19;;;;;;;8.32;3.78;;;;;;;27.53;58.44;100725.88;5011711;28;20026;-44
2023/07/28 07:48:44;;;;;;;7.72;3.50;;;;;;;27.51;60.04;100717.94;5012225;28;20026;-49
2023/07/28 07:51:10;;;;;;;6.78;3.40;;;;;;;27.34;60.77;100726.06;5011608;28;20041;-46
2023/07/28 07:53:38;;;;;;;7.20;3.63;;;;;;;27.61;59.16;100723.63;5008181;28;20073;-44
2023/07/28 07:56:04;;;;;;;7.40;3.90;;;;;;;27.55;58.13;100732.88;5011903;28;20029;-43
2023/07/28 07:58:30;;;;;;;9.95;4.00;;;;;;;26.83;60.56;100730.78;5011192;28;20128;-45
2023/07/28 08:00:56;;;;;;;6.32;3.60;;;;;;;26.80;61.68;100730.06;5011454;28;20169;-43
2023/07/28 08:03:21;;;;;;;8.35;3.67;;;;;;;26.83;59.71;100733.44;5011482;28;20500;-47
2023/07/28 08:05:47;;;;;;;7.28;3.60;;;;;;;26.83;60.04;100730.78;5011804;28;20099;-44
2023/07/28 08:08:15;;;;;;;4.95;3.10;;;;;;;27.31;59.33;100745.88;5011865;28;20034;-46
2023/07/28 08:10:40;;;;;;;5.82;3.80;;;;;;;27.05;58.83;100750.03;5010822;28;20034;-45
2023/07/28 08:13:06;;;;;;;7.88;3.75;;;;;;;26.96;58.42;100742.50;5011752;28;20088;-47
2023/07/28 08:15:31;;;;;;;5.13;3.58;;;;;;;27.23;58.26;100748.13;5011346;28;20038;-43
2023/07/28 08:17:56;;;;;;;6.00;3.72;;;;;;;27.03;58.78;100746.56;5011894;28;20523;-44
2023/07/28 08:20:22;;;;;;;6.60;3.58;;;;;;;27.17;58.64;100744.91;5011265;28;20030;-51
2023/07/28 08:22:47;;;;;;;5.47;3.55;;;;;;;27.11;58.92;100751.50;5010958;28;20030;-47
2023/07/28 08:25:12;;;;;;;7.30;3.65;;;;;;;26.79;59.68;100752.41;5011411;28;20038;-48
2023/07/28 08:27:38;;;;;;;7.70;4.15;;;;;;;26.56;60.15;100751.00;5011053;28;20133;-45
2023/07/28 08:30:05;;;;;;;7.30;4.25;;;;;;;26.88;58.84;100743.88;5011376;28;20030;-47
2023/07/28 08:32:30;;;;;;;9.57;3.90;;;;;;;27.16;59.08;100743.19;5010382;28;20053;-44
2023/07/28 08:34:55;;;;;;;7.50;3.90;;;;;;;26.46;61.44;100747.97;5010318;28;20038;-45
2023/07/28 08:37:21;;;;;;;8.38;3.83;;;;;;;26.84;60.02;100747.66;5010136;28;20408;-46
2023/07/28 08:39:46;;;;;;;9.52;3.97;;;;;;;27.24;59.01;100747.16;5012013;28;20396;-44
2023/07/28 08:42:11;;;;;;;8.38;4.00;;;;;;;27.42;57.75;100751.44;5011227;28;20428;-44
2023/07/28 08:44:37;;;;;;;6.97;3.90;;;;;;;27.59;56.16;100753.16;5011110;28;20029;-46
2023/07/28 08:47:04;;;;;;;5.80;4.00;;;;;;;27.74;57.14;100759.44;5011383;28;20517;-47
2023/07/28 08:49:32;;;;;;;7.82;4.28;;;;;;;27.77;55.94;100764.59;5010901;28;20042;-43
2023/07/28 08:52:00;;;;;;;7.90;4.80;;;;;;;27.76;56.06;100760.19;5009440;28;20026;-45
2023/07/28 08:54:25;;;;;;;9.30;4.50;;;;;;;26.94;59.05;100764.97;5010306;28;20459;-45
2023/07/28 08:56:51;;;;;;;8.40;4.88;;;;;;;26.88;58.20;100766.19;5011021;28;20034;-43
2023/07/28 08:59:27;;;;;;;9.75;5.10;;;;;;;26.41;60.67;100773.25;5010552;28;20033;-48
2023/07/28 09:01:55;;;;;;;10.48;5.15;;;;;;;25.94;62.06;100775.69;5010268;28;20497;-46
2023/07/28 09:04:21;;;;;;;10.63;5.07;;;;;;;26.85;60.14;100770.78;5010070;28;20145;-46
2023/07/28 09:06:47;;;;;;;10.88;5.28;;;;;;;26.73;59.33;100764.31;5010673;28;20030;-47
2023/07/28 09:09:17;;;;;;;14.82;5.50;;;;;;;26.39;62.21;100772.44;5010091;28;20121;-44
2023/07/28 09:11:46;;;;;;;10.13;4.80;;;;;;;26.32;62.51;100773.72;5010022;28;20034;-45
2023/07/28 09:14:13;;;;;;;11.48;5.72;;;;;;;26.32;62.17;100776.38;5010211;28;20079;-47
2023/07/28 09:16:38;;;;;;;12.20;5.90;;;;;;;26.22;62.05;100779.53;5010039;28;20038;-44
2023/07/28 09:19:08;;;;;;;9.80;5.55;;;;;;;26.32;61.63;100781.72;5010343;28;20034;-46
2023/07/28 09:21:33;;;;;;;15.70;6.90;;;;;;;25.30;65.10;100778.91;5009411;28;20144;-46
2023/07/28 09:24:06;;;;;;;11.32;6.30;;;;;;;25.42;65.55;100784.50;5010258;28;20038;-49
2023/07/28 09:26:39;;;;;;;13.65;7.30;;;;;;;25.49;64.11;100785.06;5009826;28;20030;-47
2023/07/28 09:29:30;;;;;;;15.33;6.87;;;;;;;24.96;66.05;100790.31;5010319;28;20049;-45
2023/07/28 09:32:04;;;;;;;15.43;6.80;;;;;;;25.40;64.97;100788.19;5006917;28;20038;-47
2023/07/28 09:34:30;;;;;;;;;;;;;;;25.01;66.97;100789.16;5010079;28;20080;-46
2023/07/28 09:36:57;;;;;;;14.30;6.60;;;;;;;25.34;65.40;100793.81;5010173;28;19921;-45
2023/07/28 09:39:23;;;;;;;11.63;5.65;;;;;;;25.64;64.14;100792.34;5009552;28;20404;-46
2023/07/28 09:41:48;;;;;;;13.05;5.90;;;;;;;25.43;65.27;100796.06;5009627;28;20038;-45
2023/07/28 09:44:15;;;;;;;10.90;5.43;;;;;;;25.81;63.74;100802.16;5009881;28;20038;-49
2023/07/28 09:46:58;;;;;;;10.43;5.28;;;;;;;25.88;63.28;100802.72;5009739;28;20064;-48
2023/07/28 09:49:35;;;;;;;12.85;5.47;;;;;;;25.42;64.42;100805.00;5009352;28;20057;-45
2023/07/28 09:52:05;;;;;;;11.05;5.10;;;;;;;25.71;64.60;100801.78;5009414;28;20033;-44
2023/07/28 09:54:35;;;;;;;10.30;5.38;;;;;;;25.58;64.29;100806.00;5009321;28;20064;-48
2023/07/28 09:57:04;;;;;;;9.98;5.80;;;;;;;25.30;65.01;100808.25;5009995;28;20064;-50
2023/07/28 09:59:35;;;;;;;10.77;5.53;;;;;;;25.59;64.60;100807.72;5009385;28;20069;-43
2023/07/28 10:02:01;;;;;;;10.93;5.80;;;;;;;25.37;66.05;100802.53;5009076;28;20507;-46
2023/07/28 10:04:27;;;;;;;10.85;5.25;;;;;;;25.40;64.86;100805.06;5009319;28;20088;-45
2023/07/28 10:06:56;;;;;;;11.70;5.45;;;;;;;25.54;65.46;100809.72;5010094;28;20030;-44
2023/07/28 10:09:26;;;;;;;12.32;5.80;;;;;;;25.57;65.42;100814.06;5009424;28;20038;-46
2023/07/28 10:11:52;;;;;;;8.70;5.35;;;;;;;25.89;62.95;100817.81;5009440;28;20037;-47
2023/07/28 10:14:34;;;;;;;11.80;5.32;;;;;;;25.97;62.72;100812.94;5009042;28;20497;-51
2023/07/28 10:17:01;;;;;;;10.35;5.22;;;;;;;25.81;64.05;100819.03;5009806;28;20034;-45
2023/07/28 10:19:28;;;;;;;10.32;4.45;;;;;;;26.49;61.34;100819.13;5008994;28;20527;-45
2023/07/28 10:22:08;;;;;;;9.63;4.90;;;;;;;26.24;61.45;100817.75;5010655;28;20034;-45
2023/07/28 10:25:00;;;;;;;12.77;4.97;;;;;;;25.61;63.96;100818.34;5013353;28;20042;-49
2023/07/28 10:27:36;;;;;;;9.07;4.35;;;;;;;25.41;64.38;100814.81;5013335;28;20134;-44
2023/07/28 10:30:04;;;;;;;8.23;4.43;;;;;;;26.06;62.53;100825.81;5013577;28;20041;-46
2023/07/28 10:32:38;;;;;;;7.93;4.45;;;;;;;26.45;60.44;100822.91;5011640;28;20041;-47
2023/07/28 10:35:13;;;;;;;9.43;4.50;;;;;;;25.92;62.29;100820.34;5011331;28;20034;-47
2023/07/28 10:37:41;;;;;;;11.07;4.40;;;;;;;26.39;60.84;100823.22;5012894;28;20120;-47
2023/07/28 10:40:36;;;;;;;10.43;4.20;;;;;;;26.04;62.52;100822.38;5013525;28;20022;-45
2023/07/28 10:43:04;;;;;;;8.45;3.70;;;;;;;26.73;61.10;100814.25;5013253;28;20044;-45
2023/07/28 10:45:32;;;;;;;9.57;4.80;;;;;;;26.99;59.13;100814.59;5012823;28;20124;-46
2023/07/28 10:48:00;;;;;;;8.75;4.28;;;;;;;27.60;57.04;100812.97;5013308;28;20026;-47
2023/07/28 10:50:31;;;;;;;7.70;4.03;;;;;;;27.51;54.91;100819.69;5012932;28;20045;-48
2023/07/28 10:52:57;;;;;;;9.18;4.13;;;;;;;27.44;57.60;100811.16;5012799;28;20032;-46
2023/07/28 10:55:26;;;;;;;8.35;3.80;;;;;;;27.82;54.84;100819.63;5012863;28;20411;-46
2023/07/28 10:57:53;;;;;;;8.52;4.18;;;;;;;27.24;56.23;100822.13;5013178;28;20038;-49
2023/07/28 11:00:21;;;;;;;6.72;3.53;;;;;;;28.19;54.99;100822.81;5012706;28;20133;-48
2023/07/28 11:02:52;;;;;;;6.18;3.63;;;;;;;28.50;53.06;100825.38;5012084;28;20406;-45
2023/07/28 11:05:22;;;;;;;9.05;3.40;;;;;;;28.13;53.80;100824.06;5013398;28;20121;-49
2023/07/28 11:07:49;;;;;;;8.35;4.20;;;;;;;27.86;54.24;100823.00;5013941;28;20492;-47
2023/07/28 11:10:15;;;;;;;4.95;3.28;;;;;;;27.76;56.24;100830.72;5014079;28;20030;-50
2023/07/28 11:12:44;;;;;;;9.40;3.88;;;;;;;27.22;55.09;100837.38;5011403;28;20030;-48
2023/07/28 11:15:11;;;;;;;6.32;3.28;;;;;;;28.12;54.31;100830.34;5013891;28;20034;-48
2023/07/28 11:17:41;;;;;;;7.47;3.15;;;;;;;28.12;52.52;100837.53;5014350;28;20041;-48
2023/07/28 11:20:16;;;;;;;8.10;3.40;;;;;;;27.46;56.46;100835.13;5014062;28;20037;-47